Time,TemperatureF,DewpointF,PressureIn,WindDirection,WindDirectionDegrees,WindSpeedMPH,WindSpeedGustMPH,Humidity,HourlyPrecipIn,Conditions,Clouds,dailyrainin,SoftwareType,DateUTC
2013-01-07 00:03:00,25.0,23.0,-100.00,WSW,250,7.0,9.0,92,-99.99,,,-99.99,,2013-01-07 05:03:00,
2013-01-07 00:12:00,25.0,23.0,-100.00,WSW,250,7.0,9.0,92,-99.99,,,-99.99,,2013-01-07 05:12:00,
2013-01-07 00:22:00,25.0,23.0,-100.00,WSW,250,7.0,9.0,92,-99.99,,,-99.99,,2013-01-07 05:22:00,
2013-01-07 03:03:00,18.0,16.0,-100.00,SW,215,6.0,8.0,94,-99.99,,,-99.99,,2013-01-07 08:03:00,
2013-01-07 03:12:00,18.0,16.0,-100.00,SW,215,6.0,8.0,94,-99.99,,,-99.99,,2013-01-07 08:12:00,
2013-01-07 03:22:00,18.0,16.0,-100.00,SW,215,6.0,8.0,94,-99.99,,,-99.99,,2013-01-07 08:22:00,
2013-01-07 03:32:00,18.0,17.0,-100.00,SSW,200,6.0,7.0,94,-99.99,,,-99.99,,2013-01-07 08:32:00,
2013-01-07 03:42:00,18.0,17.0,-100.00,SSW,200,6.0,7.0,94,-99.99,,,-99.99,,2013-01-07 08:42:00,
2013-01-07 03:52:00,18.0,17.0,-100.00,SSW,200,6.0,7.0,94,-99.99,,,-99.99,,2013-01-07 08:52:00,
2013-01-07 04:02:00,18.0,16.0,-100.00,SSW,205,6.0,6.0,94,-99.99,,,-99.99,,2013-01-07 09:02:00,
2013-01-07 04:12:00,18.0,16.0,-100.00,SSW,205,6.0,6.0,94,-99.99,,,-99.99,,2013-01-07 09:12:00,
2013-01-07 04:22:00,18.0,16.0,-100.00,SSW,205,6.0,6.0,94,-99.99,,,-99.99,,2013-01-07 09:22:00,
2013-01-07 04:32:00,16.0,15.0,-100.00,SW,220,7.0,7.0,94,-99.99,,,-99.99,,2013-01-07 09:32:00,
2013-01-07 04:42:00,16.0,15.0,-100.00,SW,220,7.0,7.0,94,-99.99,,,-99.99,,2013-01-07 09:42:00,
2013-01-07 04:52:00,16.0,15.0,-100.00,SW,220,7.0,7.0,94,-99.99,,,-99.99,,2013-01-07 09:52:00,
2013-01-07 05:01:00,17.0,16.0,-100.00,SW,235,6.0,6.0,94,-99.99,,,-99.99,,2013-01-07 10:01:00,
2013-01-07 05:02:00,16.0,15.0,-100.00,SSW,205,6.0,6.0,94,-99.99,,,-99.99,,2013-01-07 10:02:00,
2013-01-07 05:12:00,16.0,15.0,-100.00,SSW,205,6.0,6.0,94,-99.99,,,-99.99,,2013-01-07 10:12:00,
2013-01-07 05:22:00,16.0,15.0,-100.00,SSW,205,6.0,6.0,94,-99.99,,,-99.99,,2013-01-07 10:22:00,
2013-01-07 05:32:00,17.0,16.0,-100.00,SW,235,6.0,6.0,94,-99.99,,,-99.99,,2013-01-07 10:32:00,
2013-01-07 05:43:00,17.0,16.0,-100.00,SW,235,6.0,6.0,94,-99.99,,,-99.99,,2013-01-07 10:43:00,
2013-01-07 05:52:00,17.0,16.0,-100.00,SW,235,6.0,6.0,94,-99.99,,,-99.99,,2013-01-07 10:52:00,
2013-01-07 06:33:00,16.0,15.0,-100.00,WSW,240,7.0,8.0,94,-99.99,,,-99.99,,2013-01-07 11:33:00,
2013-01-07 06:43:00,16.0,15.0,-100.00,WSW,240,7.0,8.0,94,-99.99,,,-99.99,,2013-01-07 11:43:00,
2013-01-07 06:53:00,16.0,15.0,-100.00,SSW,205,6.0,7.0,94,-99.99,,,-99.99,,2013-01-07 11:53:00,
2013-01-07 07:03:00,16.0,15.0,-100.00,SSW,205,6.0,7.0,94,-99.99,,,-99.99,,2013-01-07 12:03:00,
2013-01-07 07:12:00,16.0,15.0,-100.00,SSW,205,6.0,7.0,94,-99.99,,,-99.99,,2013-01-07 12:12:00,
2013-01-07 07:22:00,16.0,15.0,-100.00,SSW,205,6.0,7.0,94,-99.99,,,-99.99,,2013-01-07 12:22:00,
2013-01-07 07:33:00,15.0,14.0,-100.00,SSW,195,6.0,7.0,94,-99.99,,,-99.99,,2013-01-07 12:33:00,
2013-01-07 07:43:00,15.0,14.0,-100.00,SSW,195,6.0,7.0,94,-99.99,,,-99.99,,2013-01-07 12:43:00,
2013-01-07 07:53:00,15.0,14.0,-100.00,SSW,195,6.0,7.0,94,-99.99,,,-99.99,,2013-01-07 12:53:00,
2013-01-07 08:02:00,17.0,15.0,-100.00,South,190,6.0,7.0,94,-99.99,,,-99.99,,2013-01-07 13:02:00,
2013-01-07 08:12:00,17.0,15.0,-100.00,South,190,6.0,7.0,94,-99.99,,,-99.99,,2013-01-07 13:12:00,
2013-01-07 08:23:00,17.0,15.0,-100.00,South,190,6.0,7.0,94,-99.99,,,-99.99,,2013-01-07 13:23:00,
2013-01-07 08:33:00,14.0,13.0,-100.00,South,185,6.0,6.0,94,-99.99,,,-99.99,,2013-01-07 13:33:00,
2013-01-07 08:43:00,14.0,13.0,-100.00,South,185,6.0,6.0,94,-99.99,,,-99.99,,2013-01-07 13:43:00,
2013-01-07 08:53:00,14.0,13.0,-100.00,South,185,6.0,6.0,94,-99.99,,,-99.99,,2013-01-07 13:53:00,
2013-01-07 09:03:00,15.0,14.0,-100.00,South,190,5.0,6.0,94,-99.99,,,-99.99,,2013-01-07 14:03:00,
2013-01-07 09:12:00,15.0,14.0,-100.00,South,190,5.0,6.0,94,-99.99,,,-99.99,,2013-01-07 14:12:00,
2013-01-07 09:22:00,15.0,14.0,-100.00,South,190,5.0,6.0,94,-99.99,,,-99.99,,2013-01-07 14:22:00,
2013-01-07 09:33:00,16.0,15.0,-100.00,South,180,6.0,7.0,94,-99.99,,,-99.99,,2013-01-07 14:33:00,
2013-01-07 09:43:00,16.0,15.0,-100.00,South,180,6.0,7.0,94,-99.99,,,-99.99,,2013-01-07 14:43:00,
2013-01-07 09:53:00,16.0,15.0,-100.00,South,180,6.0,7.0,94,-99.99,,,-99.99,,2013-01-07 14:53:00,
2013-01-07 10:03:00,21.0,20.0,-100.00,South,185,4.0,8.0,94,-99.99,,,-99.99,,2013-01-07 15:03:00,
2013-01-07 10:12:00,21.0,20.0,-100.00,South,185,4.0,8.0,94,-99.99,,,-99.99,,2013-01-07 15:12:00,
2013-01-07 10:22:00,21.0,20.0,-100.00,South,185,4.0,8.0,94,-99.99,,,-99.99,,2013-01-07 15:22:00,
2013-01-07 10:33:00,23.0,21.0,-100.00,South,180,9.0,12.0,94,-99.99,,,-99.99,,2013-01-07 15:33:00,
2013-01-07 10:43:00,23.0,21.0,-100.00,South,180,9.0,12.0,94,-99.99,,,-99.99,,2013-01-07 15:43:00,
2013-01-07 10:53:00,23.0,21.0,-100.00,South,180,9.0,12.0,94,-99.99,,,-99.99,,2013-01-07 15:53:00,
2013-01-07 11:02:00,24.0,23.0,-100.00,South,190,11.0,14.0,94,-99.99,,,-99.99,,2013-01-07 16:02:00,
2013-01-07 11:12:00,24.0,23.0,-100.00,South,190,11.0,14.0,94,-99.99,,,-99.99,,2013-01-07 16:12:00,
2013-01-07 11:22:00,24.0,23.0,-100.00,South,190,11.0,14.0,94,-99.99,,,-99.99,,2013-01-07 16:22:00,
2013-01-07 11:33:00,26.0,25.0,-100.00,South,185,11.0,14.0,94,-99.99,,,-99.99,,2013-01-07 16:33:00,
2013-01-07 11:43:00,26.0,25.0,-100.00,South,185,11.0,14.0,94,-99.99,,,-99.99,,2013-01-07 16:43:00,
2013-01-07 11:53:00,26.0,25.0,-100.00,South,185,11.0,14.0,94,-99.99,,,-99.99,,2013-01-07 16:53:00,
2013-01-07 12:02:00,28.0,25.0,-100.00,South,185,12.0,15.0,90,-99.99,,,-99.99,,2013-01-07 17:02:00,
2013-01-07 12:12:00,28.0,25.0,-100.00,South,185,12.0,15.0,90,-99.99,,,-99.99,,2013-01-07 17:12:00,
2013-01-07 12:23:00,28.0,25.0,-100.00,South,185,12.0,15.0,90,-99.99,,,-99.99,,2013-01-07 17:23:00,
2013-01-07 12:33:00,30.0,25.0,-100.00,SSW,195,13.0,16.0,81,-99.99,,,-99.99,,2013-01-07 17:33:00,
2013-01-07 12:43:00,30.0,25.0,-100.00,SSW,195,13.0,16.0,81,-99.99,,,-99.99,,2013-01-07 17:43:00,
2013-01-07 12:53:00,30.0,25.0,-100.00,SSW,195,13.0,16.0,81,-99.99,,,-99.99,,2013-01-07 17:53:00,
2013-01-07 13:03:00,31.0,24.0,-100.00,SSW,200,16.0,20.0,77,-99.99,,,-99.99,,2013-01-07 18:03:00,
2013-01-07 13:12:00,31.0,24.0,-100.00,SSW,200,16.0,20.0,77,-99.99,,,-99.99,,2013-01-07 18:12:00,
2013-01-07 13:23:00,31.0,24.0,-100.00,SSW,200,16.0,20.0,77,-99.99,,,-99.99,,2013-01-07 18:23:00,
2013-01-07 13:32:00,31.0,25.0,-100.00,SSW,195,18.0,26.0,75,-99.99,,,-99.99,,2013-01-07 18:32:00,
2013-01-07 13:43:00,31.0,25.0,-100.00,SSW,195,18.0,26.0,75,-99.99,,,-99.99,,2013-01-07 18:43:00,
2013-01-07 13:53:00,31.0,25.0,-100.00,SSW,195,18.0,26.0,75,-99.99,,,-99.99,,2013-01-07 18:53:00,
2013-01-07 14:03:00,33.0,25.0,-100.00,South,180,14.0,25.0,73,-99.99,,,-99.99,,2013-01-07 19:03:00,
2013-01-07 14:12:00,33.0,25.0,-100.00,South,180,14.0,25.0,73,-99.99,,,-99.99,,2013-01-07 19:12:00,
2013-01-07 14:22:00,33.0,25.0,-100.00,South,180,14.0,25.0,73,-99.99,,,-99.99,,2013-01-07 19:22:00,
2013-01-07 14:33:00,33.0,26.0,-100.00,South,180,13.0,20.0,73,-99.99,,,-99.99,,2013-01-07 19:33:00,
2013-01-07 14:43:00,33.0,26.0,-100.00,South,180,13.0,20.0,73,-99.99,,,-99.99,,2013-01-07 19:43:00,
2013-01-07 14:52:00,33.0,26.0,-100.00,South,180,13.0,20.0,73,-99.99,,,-99.99,,2013-01-07 19:52:00,
2013-01-07 15:03:00,33.0,26.0,-100.00,SSW,195,16.0,19.0,73,-99.99,,,-99.99,,2013-01-07 20:03:00,
2013-01-07 15:12:00,33.0,26.0,-100.00,SSW,195,16.0,19.0,73,-99.99,,,-99.99,,2013-01-07 20:12:00,
2013-01-07 15:23:00,33.0,26.0,-100.00,SSW,195,16.0,19.0,73,-99.99,,,-99.99,,2013-01-07 20:23:00,
2013-01-07 15:33:00,34.0,26.0,-100.00,South,180,15.0,17.0,72,-99.99,,,-99.99,,2013-01-07 20:33:00,
2013-01-07 15:43:00,34.0,26.0,-100.00,South,180,15.0,17.0,72,-99.99,,,-99.99,,2013-01-07 20:43:00,
2013-01-07 15:53:00,34.0,26.0,-100.00,South,180,15.0,17.0,72,-99.99,,,-99.99,,2013-01-07 20:53:00,
2013-01-07 16:03:00,34.0,26.0,-100.00,South,180,13.0,19.0,71,-99.99,,,-99.99,,2013-01-07 21:03:00,
2013-01-07 16:12:00,34.0,26.0,-100.00,South,180,13.0,19.0,71,-99.99,,,-99.99,,2013-01-07 21:12:00,
2013-01-07 16:23:00,34.0,26.0,-100.00,South,180,13.0,19.0,71,-99.99,,,-99.99,,2013-01-07 21:23:00,
2013-01-07 16:33:00,34.0,26.0,-100.00,South,180,12.0,16.0,70,-99.99,,,-99.99,,2013-01-07 21:33:00,
2013-01-07 16:43:00,34.0,26.0,-100.00,South,180,12.0,16.0,70,-99.99,,,-99.99,,2013-01-07 21:43:00,
2013-01-07 16:53:00,34.0,26.0,-100.00,South,180,12.0,16.0,70,-99.99,,,-99.99,,2013-01-07 21:53:00,
2013-01-07 17:02:00,34.0,26.0,-100.00,South,180,10.0,14.0,70,-99.99,,,-99.99,,2013-01-07 22:02:00,
2013-01-07 17:12:00,34.0,26.0,-100.00,South,180,10.0,14.0,70,-99.99,,,-99.99,,2013-01-07 22:12:00,
2013-01-07 17:22:00,34.0,26.0,-100.00,South,180,10.0,14.0,70,-99.99,,,-99.99,,2013-01-07 22:22:00,
2013-01-07 17:33:00,33.0,25.0,-100.00,South,185,8.0,11.0,71,-99.99,,,-99.99,,2013-01-07 22:33:00,
2013-01-07 17:43:00,33.0,25.0,-100.00,South,185,8.0,11.0,71,-99.99,,,-99.99,,2013-01-07 22:43:00,
2013-01-07 17:53:00,31.0,23.0,-100.00,SSW,195,6.0,9.0,73,-99.99,,,-99.99,,2013-01-07 22:53:00,
2013-01-07 18:02:00,31.0,23.0,-100.00,SSW,195,6.0,9.0,73,-99.99,,,-99.99,,2013-01-07 23:02:00,
2013-01-07 18:12:00,31.0,23.0,-100.00,SSW,195,6.0,9.0,73,-99.99,,,-99.99,,2013-01-07 23:12:00,
2013-01-07 18:22:00,31.0,23.0,-100.00,SSW,195,6.0,9.0,73,-99.99,,,-99.99,,2013-01-07 23:22:00,
2013-01-07 18:33:00,27.0,21.0,-100.00,South,175,9.0,11.0,75,-99.99,,,-99.99,,2013-01-07 23:33:00,
2013-01-07 18:43:00,27.0,21.0,-100.00,South,175,9.0,11.0,75,-99.99,,,-99.99,,2013-01-07 23:43:00,
2013-01-07 18:53:00,27.0,21.0,-100.00,South,175,9.0,11.0,75,-99.99,,,-99.99,,2013-01-07 23:53:00,
2013-01-07 19:03:00,27.0,22.0,-100.00,South,170,11.0,14.0,81,-99.99,,,-99.99,,2013-01-08 00:03:00,
2013-01-07 19:12:00,27.0,22.0,-100.00,South,170,11.0,14.0,81,-99.99,,,-99.99,,2013-01-08 00:12:00,
2013-01-07 19:22:00,28.0,23.0,-100.00,South,175,13.0,15.0,82,-99.99,,,-99.99,,2013-01-08 00:22:00,
2013-01-07 19:33:00,28.0,23.0,-100.00,South,175,13.0,15.0,82,-99.99,,,-99.99,,2013-01-08 00:33:00,
2013-01-07 19:42:00,28.0,23.0,-100.00,South,175,13.0,15.0,82,-99.99,,,-99.99,,2013-01-08 00:42:00,
2013-01-07 19:52:00,28.0,23.0,-100.00,South,175,13.0,15.0,82,-99.99,,,-99.99,,2013-01-08 00:52:00,
2013-01-07 20:03:00,30.0,24.0,-100.00,South,180,14.0,18.0,79,-99.99,,,-99.99,,2013-01-08 01:03:00,
2013-01-07 20:12:00,30.0,24.0,-100.00,South,180,14.0,18.0,79,-99.99,,,-99.99,,2013-01-08 01:12:00,
2013-01-07 20:22:00,30.0,24.0,-100.00,South,180,14.0,18.0,79,-99.99,,,-99.99,,2013-01-08 01:22:00,
2013-01-07 20:33:00,30.0,23.0,-100.00,South,185,13.0,17.0,76,-99.99,,,-99.99,,2013-01-08 01:33:00,
2013-01-07 20:42:00,30.0,23.0,-100.00,South,185,13.0,17.0,76,-99.99,,,-99.99,,2013-01-08 01:42:00,
2013-01-07 20:52:00,30.0,23.0,-100.00,South,185,13.0,17.0,76,-99.99,,,-99.99,,2013-01-08 01:52:00,
2013-01-07 21:02:00,29.0,23.0,-100.00,South,185,12.0,16.0,79,-99.99,,,-99.99,,2013-01-08 02:02:00,
2013-01-07 21:12:00,29.0,23.0,-100.00,South,185,12.0,16.0,79,-99.99,,,-99.99,,2013-01-08 02:12:00,
2013-01-07 21:22:00,29.0,23.0,-100.00,South,185,12.0,16.0,79,-99.99,,,-99.99,,2013-01-08 02:22:00,
2013-01-07 21:32:00,28.0,23.0,-100.00,South,185,13.0,16.0,80,-99.99,,,-99.99,,2013-01-08 02:32:00,
2013-01-07 21:43:00,28.0,23.0,-100.00,South,185,13.0,16.0,80,-99.99,,,-99.99,,2013-01-08 02:43:00,
2013-01-07 21:53:00,28.0,23.0,-100.00,South,185,13.0,16.0,80,-99.99,,,-99.99,,2013-01-08 02:53:00,
2013-01-07 22:03:00,27.0,23.0,-100.00,South,190,10.0,16.0,82,-99.99,,,-99.99,,2013-01-08 03:03:00,
2013-01-07 22:12:00,27.0,23.0,-100.00,South,190,10.0,16.0,82,-99.99,,,-99.99,,2013-01-08 03:12:00,
2013-01-07 22:22:00,27.0,23.0,-100.00,South,190,10.0,16.0,82,-99.99,,,-99.99,,2013-01-08 03:22:00,
2013-01-07 22:32:00,26.0,22.0,-100.00,South,185,10.0,12.0,84,-99.99,,,-99.99,,2013-01-08 03:32:00,
2013-01-07 22:43:00,26.0,22.0,-100.00,South,185,10.0,12.0,84,-99.99,,,-99.99,,2013-01-08 03:43:00,
2013-01-07 22:53:00,26.0,22.0,-100.00,South,185,10.0,12.0,84,-99.99,,,-99.99,,2013-01-08 03:53:00,
2013-01-07 23:02:00,26.0,22.0,-100.00,SSW,195,10.0,12.0,85,-99.99,,,-99.99,,2013-01-08 04:02:00,
2013-01-07 23:12:00,26.0,22.0,-100.00,SSW,195,10.0,12.0,85,-99.99,,,-99.99,,2013-01-08 04:12:00,
2013-01-07 23:22:00,26.0,22.0,-100.00,SSW,195,10.0,12.0,85,-99.99,,,-99.99,,2013-01-08 04:22:00,
2013-01-07 23:32:00,25.0,22.0,-100.00,South,190,9.0,10.0,87,-99.99,,,-99.99,,2013-01-08 04:32:00,
2013-01-07 23:43:00,25.0,22.0,-100.00,South,190,9.0,10.0,87,-99.99,,,-99.99,,2013-01-08 04:43:00,
2013-01-07 23:52:00,25.0,22.0,-100.00,South,190,9.0,10.0,87,-99.99,,,-99.99,,2013-01-08 04:52:00,